createdAt,value
2019-03-23T00:00:44.159Z,83.45
2019-03-23T00:03:18.643Z,82.08
2019-03-23T00:05:50.086Z,80.30
2019-03-23T00:08:22.694Z,73.33
2019-03-23T00:10:55.345Z,61.98
2019-03-23T00:13:29.050Z,55.70
2019-03-23T00:16:00.722Z,53.92
2019-03-23T00:18:32.395Z,52.65
2019-03-23T00:21:04.913Z,53.58
2019-03-23T00:23:37.337Z,52.80
2019-03-23T00:26:09.940Z,53.10
2019-03-23T00:28:42.850Z,54.33
2019-03-23T00:31:14.244Z,56.33
2019-03-23T00:33:46.944Z,59.80
2019-03-23T00:36:18.763Z,69.75
2019-03-23T00:38:51.656Z,67.95
2019-03-23T00:41:25.900Z,66.10
2019-03-23T00:43:57.472Z,63.28
2019-03-23T00:46:29.727Z,62.70
2019-03-23T00:49:05.363Z,57.33
2019-03-23T00:51:38.594Z,55.25
2019-03-23T00:54:13.096Z,57.58
2019-03-23T00:56:47.519Z,58.10
2019-03-23T00:59:22.616Z,60.17
2019-03-23T01:01:54.385Z,58.02
2019-03-23T01:04:39.737Z,56.48
2019-03-23T01:07:11.510Z,55.00
2019-03-23T01:09:44.277Z,53.55
2019-03-23T01:12:15.956Z,52.33
2019-03-23T01:14:50.535Z,52.58
2019-03-23T01:17:22.068Z,53.17
2019-03-23T01:19:54.080Z,49.83
2019-03-23T01:22:28.537Z,52.60
2019-03-23T01:25:00.908Z,53.97
2019-03-23T01:27:33.631Z,53.28
2019-03-23T01:30:06.566Z,53.50
2019-03-23T01:32:39.142Z,53.38
2019-03-23T01:35:11.744Z,53.42
2019-03-23T01:37:44.281Z,55.00
2019-03-23T01:40:16.694Z,60.10
2019-03-23T01:43:22.568Z,61.85
2019-03-23T01:45:53.724Z,62.23
2019-03-23T01:48:24.901Z,61.83
2019-03-23T01:50:57.622Z,64.65
2019-03-23T01:53:33.027Z,66.47
2019-03-23T01:56:05.468Z,64.70
2019-03-23T01:58:40.434Z,64.17
2019-03-23T02:01:12.765Z,61.37
2019-03-23T02:03:44.988Z,61.33
2019-03-23T02:06:18.351Z,60.95
2019-03-23T02:08:52.162Z,61.35
2019-03-23T02:11:24.083Z,59.33
2019-03-23T02:13:56.206Z,59.65
2019-03-23T02:16:27.143Z,60.03
2019-03-23T02:18:59.489Z,60.20
2019-03-23T02:21:33.988Z,58.73
2019-03-23T02:24:06.105Z,53.47
2019-03-23T02:26:38.929Z,52.58
2019-03-23T02:29:13.721Z,51.77
2019-03-23T02:31:49.906Z,52.00
2019-03-23T02:34:23.180Z,46.33
2019-03-23T02:36:55.599Z,44.63
2019-03-23T02:39:26.980Z,41.70
2019-03-23T02:41:59.057Z,42.78
2019-03-23T02:44:33.850Z,41.05
2019-03-23T02:47:06.479Z,41.08
2019-03-23T02:49:39.171Z,43.52
2019-03-23T02:52:11.378Z,42.80
2019-03-23T02:54:49.440Z,42.15
2019-03-23T02:57:36.592Z,43.25
2019-03-23T03:00:10.734Z,41.55
2019-03-23T03:02:45.296Z,42.58
2019-03-23T03:05:17.011Z,42.13
2019-03-23T03:07:49.386Z,42.35
2019-03-23T03:10:23.055Z,42.62
2019-03-23T03:12:55.472Z,42.58
2019-03-23T03:15:27.568Z,42.00
2019-03-23T03:18:00.321Z,40.35
2019-03-23T03:20:32.536Z,43.40
2019-03-23T03:23:04.929Z,43.83
2019-03-23T03:25:35.986Z,44.00
2019-03-23T03:28:10.523Z,41.88
2019-03-23T03:30:44.208Z,43.33
2019-03-23T03:33:16.763Z,45.88
2019-03-23T03:35:51.684Z,44.90
2019-03-23T03:38:26.792Z,47.08
2019-03-23T03:43:32.683Z,49.27
2019-03-23T03:46:06.899Z,47.03
2019-03-23T03:48:39.248Z,48.45
2019-03-23T03:51:13.732Z,46.13
2019-03-23T03:53:45.873Z,48.05
2019-03-23T03:56:19.661Z,48.05
2019-03-23T03:58:51.925Z,46.63
2019-03-23T04:01:24.745Z,46.13
2019-03-23T04:03:58.363Z,47.50
2019-03-23T04:06:32.479Z,47.65
2019-03-23T04:09:03.850Z,47.03
2019-03-23T04:11:37.805Z,46.25
2019-03-23T04:14:10.430Z,46.83
2019-03-23T04:16:43.189Z,47.03
2019-03-23T04:19:15.977Z,47.13
2019-03-23T04:21:49.953Z,50.30
2019-03-23T04:24:22.419Z,50.00
2019-03-23T04:26:54.881Z,58.87
2019-03-23T04:29:28.953Z,60.85
2019-03-23T04:32:04.364Z,63.42
2019-03-23T04:34:36.478Z,62.88
2019-03-23T04:37:10.620Z,66.45
2019-03-23T04:39:41.883Z,61.80
2019-03-23T04:42:14.653Z,60.00
2019-03-23T04:44:49.495Z,63.33
2019-03-23T04:47:21.839Z,61.73
2019-03-23T04:49:53.955Z,60.05
2019-03-23T04:52:25.324Z,59.88
2019-03-23T04:54:57.433Z,61.37
2019-03-23T04:57:29.538Z,59.88
2019-03-23T05:00:03.490Z,57.73
2019-03-23T05:02:40.830Z,58.25
2019-03-23T05:05:13.283Z,58.00
2019-03-23T05:07:45.756Z,58.55
2019-03-23T05:10:18.559Z,56.98
2019-03-23T05:12:53.263Z,57.93
2019-03-23T05:15:25.547Z,61.13
2019-03-23T05:18:01.351Z,59.25
2019-03-23T05:20:34.720Z,54.30
2019-03-23T05:23:07.776Z,52.00
2019-03-23T05:25:40.417Z,54.58
2019-03-23T05:28:14.688Z,52.65
2019-03-23T05:30:56.846Z,54.70
2019-03-23T05:33:30.923Z,53.38
2019-03-23T05:36:03.343Z,52.47
2019-03-23T05:38:44.326Z,54.33
2019-03-23T05:41:14.038Z,55.10
2019-03-23T05:46:17.435Z,52.70
2019-03-23T05:48:49.807Z,52.80
2019-03-23T05:51:22.557Z,54.05
2019-03-23T05:53:54.712Z,56.18
2019-03-23T05:56:30.256Z,54.65
2019-03-23T05:59:04.553Z,55.17
2019-03-23T06:01:37.464Z,55.25
2019-03-23T06:04:09.556Z,54.38
2019-03-23T06:06:48.007Z,55.90
2019-03-23T06:09:21.991Z,56.63
2019-03-23T06:11:53.464Z,56.87
2019-03-23T06:14:25.520Z,56.53
2019-03-23T06:16:57.916Z,57.15
2019-03-23T06:19:33.091Z,57.15
2019-03-23T06:22:11.410Z,58.08
2019-03-23T06:24:45.565Z,58.75
2019-03-23T06:27:17.674Z,56.28
2019-03-23T06:29:52.731Z,57.50
2019-03-23T06:32:25.168Z,55.95
2019-03-23T06:34:57.832Z,54.45
2019-03-23T06:37:32.165Z,55.52
2019-03-23T06:40:07.285Z,57.65
2019-03-23T06:42:40.456Z,50.67
2019-03-23T06:45:12.893Z,58.50
2019-03-23T06:47:45.401Z,57.80
2019-03-23T06:50:18.683Z,59.75
2019-03-23T06:52:51.355Z,57.60
2019-03-23T06:55:25.278Z,58.95
2019-03-23T06:58:00.340Z,58.33
2019-03-23T07:00:32.693Z,57.50
2019-03-23T07:03:06.754Z,57.45
2019-03-23T07:08:32.219Z,54.53
2019-03-23T07:11:02.770Z,55.58
2019-03-23T07:13:36.476Z,55.38
2019-03-23T07:16:10.760Z,55.35
2019-03-23T07:18:43.312Z,56.68
2019-03-23T07:21:15.631Z,55.88
2019-03-23T07:23:47.928Z,55.00
2019-03-23T07:26:19.379Z,55.15
2019-03-23T07:28:51.834Z,53.17
2019-03-23T07:31:25.731Z,55.58
2019-03-23T07:33:58.370Z,54.45
2019-03-23T07:36:30.841Z,54.20
2019-03-23T07:39:03.022Z,55.08
2019-03-23T07:41:36.935Z,55.92
2019-03-23T07:44:09.396Z,54.97
2019-03-23T07:46:43.103Z,54.15
2019-03-23T07:49:17.764Z,51.25
2019-03-23T07:54:21.699Z,50.95
2019-03-23T07:56:53.681Z,49.88
2019-03-23T07:59:25.894Z,47.88
2019-03-23T08:01:57.999Z,51.13
2019-03-23T08:04:29.676Z,48.75
2019-03-23T08:07:01.796Z,50.38
2019-03-23T08:09:37.854Z,48.78
2019-03-23T08:12:20.193Z,45.25
2019-03-23T08:14:54.367Z,43.70
2019-03-23T08:17:28.279Z,43.90
2019-03-23T08:20:02.355Z,45.20
2019-03-23T08:22:34.806Z,41.45
2019-03-23T08:25:08.103Z,42.23
2019-03-23T08:27:41.668Z,42.25
2019-03-23T08:30:15.665Z,43.02
2019-03-23T08:32:48.286Z,43.30
2019-03-23T08:35:20.377Z,43.25
2019-03-23T08:37:51.525Z,41.08
2019-03-23T08:40:23.877Z,40.98
2019-03-23T08:42:56.073Z,41.50
2019-03-23T08:45:28.904Z,40.10
2019-03-23T08:48:03.852Z,39.65
2019-03-23T08:50:35.252Z,39.50
2019-03-23T08:53:07.343Z,41.45
2019-03-23T08:55:41.153Z,40.52
2019-03-23T08:58:13.511Z,41.90
2019-03-23T09:00:47.288Z,38.73
2019-03-23T09:03:21.515Z,38.60
2019-03-23T09:05:56.712Z,37.55
2019-03-23T09:08:40.732Z,38.55
2019-03-23T09:11:20.442Z,37.30
2019-03-23T09:13:45.639Z,37.28
2019-03-23T09:16:17.839Z,35.80
2019-03-23T09:18:49.024Z,35.17
2019-03-23T09:21:23.538Z,39.10
2019-03-23T09:23:54.795Z,38.23
2019-03-23T09:26:27.195Z,38.50
2019-03-23T09:29:01.260Z,38.58
2019-03-23T09:31:32.500Z,41.15
2019-03-23T09:34:04.689Z,40.05
2019-03-23T09:36:36.871Z,39.98
2019-03-23T09:39:13.116Z,39.50
2019-03-23T09:41:45.520Z,39.63
2019-03-23T09:44:17.708Z,39.92
2019-03-23T09:46:50.008Z,38.48
2019-03-23T09:49:22.113Z,38.20
2019-03-23T09:51:56.462Z,38.02
2019-03-23T09:54:28.804Z,38.67
2019-03-23T09:57:01.662Z,37.45
2019-03-23T09:59:34.163Z,38.35
2019-03-23T10:02:06.688Z,37.48
2019-03-23T10:04:39.036Z,37.50
2019-03-23T10:07:11.539Z,37.70
2019-03-23T10:09:43.529Z,37.90
2019-03-23T10:12:15.771Z,38.80
2019-03-23T10:14:52.742Z,38.45
2019-03-23T10:17:26.510Z,37.25
2019-03-23T10:19:57.950Z,39.58
2019-03-23T10:22:31.492Z,40.05
2019-03-23T10:25:02.796Z,39.58
2019-03-23T10:27:37.564Z,38.70
2019-03-23T10:30:11.837Z,39.35
2019-03-23T10:32:43.982Z,39.65
2019-03-23T10:35:18.713Z,38.70
2019-03-23T10:37:51.086Z,39.15
2019-03-23T10:40:31.700Z,38.90
2019-03-23T10:42:54.818Z,39.03
2019-03-23T10:45:27.251Z,39.58
2019-03-23T10:47:59.689Z,39.50
2019-03-23T10:50:32.079Z,39.60
2019-03-23T10:53:03.533Z,38.80
2019-03-23T10:55:34.783Z,39.33
2019-03-23T10:58:07.099Z,39.33
2019-03-23T11:00:38.598Z,39.90
2019-03-23T11:03:11.075Z,40.73
2019-03-23T11:05:46.353Z,40.92
2019-03-23T11:08:20.703Z,39.65
2019-03-23T11:10:52.768Z,38.20
2019-03-23T11:13:26.335Z,39.08
2019-03-23T11:16:00.750Z,37.75
2019-03-23T11:18:34.724Z,39.33
2019-03-23T11:21:09.419Z,40.83
2019-03-23T11:23:45.478Z,41.00
2019-03-23T11:26:17.394Z,41.15
2019-03-23T11:28:48.746Z,43.40
2019-03-23T11:31:21.301Z,44.13
2019-03-23T11:33:53.393Z,44.38
2019-03-23T11:36:25.877Z,44.53
2019-03-23T11:38:59.775Z,44.23
2019-03-23T11:41:34.622Z,47.03
2019-03-23T11:46:37.092Z,46.30
2019-03-23T11:49:08.429Z,48.95
2019-03-23T11:51:43.091Z,48.50
2019-03-23T11:54:15.471Z,48.63
2019-03-23T11:56:49.579Z,47.50
2019-03-23T11:59:22.498Z,49.37
2019-03-23T12:01:58.446Z,50.40
2019-03-23T12:04:33.034Z,49.15
2019-03-23T12:07:04.215Z,48.05
2019-03-23T12:09:36.910Z,48.98
2019-03-23T12:12:09.009Z,48.20
2019-03-23T12:14:43.067Z,49.93
2019-03-23T12:17:18.785Z,47.23
2019-03-23T12:19:51.716Z,48.08
2019-03-23T12:22:24.086Z,61.42
2019-03-23T12:24:58.355Z,51.98
2019-03-23T12:27:30.632Z,50.87
2019-03-23T12:30:07.043Z,50.85
2019-03-23T12:32:36.899Z,51.77
2019-03-23T12:35:10.764Z,52.05
2019-03-23T12:37:46.296Z,53.00
2019-03-23T12:40:18.471Z,55.50
2019-03-23T12:42:50.020Z,53.90
2019-03-23T12:45:22.478Z,54.23
2019-03-23T12:47:54.783Z,52.27
2019-03-23T12:50:28.944Z,53.40
2019-03-23T12:53:02.148Z,55.60
2019-03-23T12:55:34.594Z,51.95
2019-03-23T12:58:06.971Z,52.27
2019-03-23T13:00:39.186Z,50.08
2019-03-23T13:03:10.326Z,49.60
2019-03-23T13:05:44.660Z,51.60
2019-03-23T13:08:16.879Z,51.65
2019-03-23T13:10:51.079Z,51.68
2019-03-23T13:13:28.283Z,52.23
2019-03-23T13:15:59.492Z,50.50
2019-03-23T13:18:33.329Z,50.52
2019-03-23T13:21:05.975Z,49.53
2019-03-23T13:23:40.795Z,51.55
2019-03-23T13:26:12.027Z,51.73
2019-03-23T13:28:44.428Z,53.73
2019-03-23T13:31:18.542Z,53.90
2019-03-23T13:33:50.963Z,54.93
2019-03-23T13:36:23.214Z,54.27
2019-03-23T13:38:57.317Z,53.08
2019-03-23T13:41:29.741Z,57.85
2019-03-23T13:44:03.847Z,57.15
2019-03-23T13:46:36.308Z,60.23
2019-03-23T13:49:12.686Z,58.17
2019-03-23T13:51:45.519Z,60.25
2019-03-23T13:54:17.850Z,60.35
2019-03-23T13:56:50.393Z,60.80
2019-03-23T13:59:22.539Z,60.65
2019-03-23T14:01:56.914Z,61.65
2019-03-23T14:04:29.162Z,62.83
2019-03-23T14:07:01.579Z,59.40
2019-03-23T14:09:33.581Z,60.30
2019-03-23T14:12:11.035Z,58.45
2019-03-23T14:14:43.270Z,62.67
2019-03-23T14:17:15.453Z,59.65
2019-03-23T14:19:48.455Z,59.60
2019-03-23T14:22:19.688Z,61.80
2019-03-23T14:24:56.175Z,60.90
2019-03-23T14:27:30.438Z,59.67
2019-03-23T14:30:01.327Z,58.48
2019-03-23T14:32:34.047Z,56.75
2019-03-23T14:35:06.897Z,56.70
2019-03-23T14:37:39.067Z,53.58
2019-03-23T14:40:13.155Z,54.90
2019-03-23T14:42:44.474Z,52.33
2019-03-23T14:45:19.107Z,52.25
2019-03-23T14:47:50.260Z,53.08
2019-03-23T14:50:21.807Z,52.35
2019-03-23T14:52:52.918Z,51.92
2019-03-23T14:55:24.970Z,53.10
2019-03-23T14:57:57.431Z,51.13
2019-03-23T15:00:32.172Z,52.38
2019-03-23T15:03:10.562Z,52.00
2019-03-23T15:05:42.887Z,51.05
2019-03-23T15:08:17.567Z,50.60
2019-03-23T15:10:51.290Z,51.35
2019-03-23T15:13:23.699Z,50.80
2019-03-23T15:15:56.071Z,49.77
2019-03-23T15:18:30.328Z,50.05
2019-03-23T15:21:01.822Z,48.23
2019-03-23T15:23:33.125Z,48.60
2019-03-23T15:26:07.250Z,52.03
2019-03-23T15:28:41.393Z,52.53
2019-03-23T15:31:13.899Z,53.33
2019-03-23T15:33:46.607Z,50.95
2019-03-23T15:36:18.921Z,50.70
2019-03-23T15:38:51.358Z,49.98
2019-03-23T15:41:25.243Z,50.98
2019-03-23T15:43:57.461Z,54.30
2019-03-23T15:46:49.144Z,56.13
2019-03-23T15:49:23.440Z,56.85
2019-03-23T15:51:55.123Z,60.30
2019-03-23T15:54:30.186Z,57.75
2019-03-23T15:57:03.852Z,56.58
2019-03-23T15:59:36.259Z,55.65
2019-03-23T16:02:07.598Z,56.92
2019-03-23T16:04:39.836Z,53.52
2019-03-23T16:07:10.987Z,51.65
2019-03-23T16:09:45.223Z,50.63
2019-03-23T16:12:17.322Z,50.28
2019-03-23T16:14:54.430Z,50.03
2019-03-23T16:17:26.783Z,51.42
2019-03-23T16:19:58.751Z,49.83
2019-03-23T16:22:32.452Z,50.65
2019-03-23T16:25:04.949Z,48.28
2019-03-23T16:27:36.290Z,49.48
2019-03-23T16:30:13.496Z,50.55
2019-03-23T16:32:45.875Z,48.15
2019-03-23T16:35:18.448Z,49.00
2019-03-23T16:37:50.698Z,49.15
2019-03-23T16:40:23.146Z,49.23
2019-03-23T16:42:54.342Z,48.75
2019-03-23T16:45:26.492Z,48.17
2019-03-23T16:48:00.584Z,46.65
2019-03-23T16:50:33.357Z,47.98
2019-03-23T16:53:05.746Z,48.17
2019-03-23T16:55:37.975Z,47.23
2019-03-23T16:58:16.037Z,47.20
2019-03-23T17:00:42.843Z,46.45
2019-03-23T17:03:14.187Z,44.77
2019-03-23T17:05:47.022Z,45.20
2019-03-23T17:08:18.320Z,43.68
2019-03-23T17:10:52.114Z,43.80
2019-03-23T17:13:23.460Z,42.83
2019-03-23T17:16:14.924Z,41.50
2019-03-23T17:18:47.251Z,41.95
2019-03-23T17:21:19.905Z,42.43
2019-03-23T17:23:52.583Z,41.90
2019-03-23T17:26:26.804Z,41.37
2019-03-23T17:28:59.381Z,42.17
2019-03-23T17:31:31.280Z,41.60
2019-03-23T17:34:03.822Z,40.43
2019-03-23T17:36:36.219Z,41.02
2019-03-23T17:39:09.587Z,39.75
2019-03-23T17:41:44.320Z,40.48
2019-03-23T17:44:16.615Z,40.25
2019-03-23T17:46:50.640Z,39.45
2019-03-23T17:49:22.938Z,41.77
2019-03-23T17:51:55.606Z,39.53
2019-03-23T17:54:28.206Z,40.08
2019-03-23T17:57:00.838Z,40.58
2019-03-23T17:59:32.122Z,40.65
2019-03-23T18:02:04.928Z,42.53
2019-03-23T18:04:37.133Z,41.90
2019-03-23T18:10:12.380Z,40.85
2019-03-23T18:12:53.250Z,41.63
2019-03-23T18:18:24.888Z,42.20
2019-03-23T18:21:07.412Z,43.85
2019-03-23T18:23:40.023Z,42.48
2019-03-23T18:26:13.887Z,43.15
2019-03-23T18:28:44.900Z,42.60
2019-03-23T18:31:16.463Z,42.60
2019-03-23T18:33:50.704Z,43.42
2019-03-23T18:38:58.395Z,40.50
2019-03-23T18:41:29.700Z,42.85
2019-03-23T18:44:00.819Z,44.08
2019-03-23T18:46:33.138Z,43.10
2019-03-23T18:49:05.684Z,42.73
2019-03-23T18:51:39.402Z,42.05
2019-03-23T18:54:13.578Z,42.58
2019-03-23T18:56:45.596Z,41.35
2019-03-23T18:59:18.003Z,42.85
2019-03-23T19:01:50.374Z,43.30
2019-03-23T19:04:23.213Z,41.50
2019-03-23T19:06:54.443Z,42.83
2019-03-23T19:09:26.900Z,43.25
2019-03-23T19:11:59.113Z,42.83
2019-03-23T19:14:30.682Z,42.80
2019-03-23T19:17:02.998Z,43.75
2019-03-23T19:19:35.027Z,43.60
2019-03-23T19:22:06.273Z,43.05
2019-03-23T19:24:37.447Z,42.55
2019-03-23T19:27:09.491Z,43.05
2019-03-23T19:29:40.832Z,42.88
2019-03-23T19:32:13.331Z,43.33
2019-03-23T19:34:45.560Z,44.38
2019-03-23T19:37:17.895Z,44.53
2019-03-23T19:39:51.813Z,46.35
2019-03-23T19:42:23.168Z,46.53
2019-03-23T19:44:55.582Z,45.73
2019-03-23T19:47:29.572Z,46.37
2019-03-23T19:50:03.795Z,45.63
2019-03-23T19:52:36.238Z,46.15
2019-03-23T19:55:10.141Z,45.92
2019-03-23T19:57:44.453Z,47.33
2019-03-23T20:00:16.633Z,47.60
2019-03-23T20:02:53.085Z,47.40
2019-03-23T20:05:25.753Z,47.05
2019-03-23T20:07:58.238Z,47.35
2019-03-23T20:10:30.325Z,46.10
2019-03-23T20:13:03.002Z,46.65
2019-03-23T20:15:37.900Z,46.55
2019-03-23T20:18:09.377Z,45.78
2019-03-23T20:20:40.711Z,45.65
2019-03-23T20:23:12.803Z,46.68
2019-03-23T20:25:44.373Z,47.20
2019-03-23T20:28:15.656Z,47.33
2019-03-23T20:30:48.123Z,47.53
2019-03-23T20:33:21.742Z,46.60
2019-03-23T20:35:53.081Z,46.40
2019-03-23T20:38:27.063Z,47.73
2019-03-23T20:40:59.780Z,48.98
2019-03-23T20:43:31.085Z,48.02
2019-03-23T20:46:02.402Z,47.90
2019-03-23T20:48:36.465Z,47.23
2019-03-23T20:51:10.243Z,47.50
2019-03-23T20:53:41.552Z,48.70
2019-03-23T20:56:12.690Z,47.50
2019-03-23T20:58:47.282Z,46.83
2019-03-23T21:01:18.693Z,49.33
2019-03-23T21:03:50.931Z,47.75
2019-03-23T21:06:23.610Z,47.67
2019-03-23T21:08:55.814Z,47.30
2019-03-23T21:11:27.086Z,47.48
2019-03-23T21:13:58.115Z,46.25
2019-03-23T21:16:30.336Z,46.60
2019-03-23T21:19:02.543Z,46.63
2019-03-23T21:21:34.834Z,46.18
2019-03-23T21:24:06.052Z,47.23
2019-03-23T21:26:37.337Z,46.58
2019-03-23T21:29:08.528Z,47.05
2019-03-23T21:31:39.835Z,46.92
2019-03-23T21:34:12.278Z,45.95
2019-03-23T21:36:46.574Z,46.58
2019-03-23T21:39:19.007Z,46.95
2019-03-23T21:41:51.096Z,45.17
2019-03-23T21:44:30.628Z,46.85
2019-03-23T21:46:54.998Z,47.03
2019-03-23T21:49:27.473Z,46.23
2019-03-23T21:52:01.114Z,47.55
2019-03-23T21:54:35.254Z,46.95
2019-03-23T21:57:07.771Z,47.73
2019-03-23T21:59:39.974Z,47.90
2019-03-23T22:02:11.006Z,47.65
2019-03-23T22:04:42.048Z,46.55
2019-03-23T22:07:16.302Z,47.00
2019-03-23T22:09:47.522Z,45.90
2019-03-23T22:12:19.814Z,48.17
2019-03-23T22:14:51.042Z,46.65
2019-03-23T22:17:23.277Z,47.15
2019-03-23T22:19:55.720Z,47.27
2019-03-23T22:22:28.145Z,46.83
2019-03-23T22:24:59.979Z,47.10
2019-03-23T22:27:32.104Z,48.15
2019-03-23T22:30:04.726Z,45.92
2019-03-23T22:32:35.850Z,46.50
2019-03-23T22:35:08.792Z,46.48
2019-03-23T22:37:40.023Z,45.80
2019-03-23T22:40:12.121Z,45.90
2019-03-23T22:42:43.408Z,46.42
2019-03-23T22:45:15.915Z,46.15
2019-03-23T22:47:48.106Z,45.90
2019-03-23T22:50:20.311Z,46.70
2019-03-23T22:52:52.951Z,44.30
2019-03-23T22:55:25.133Z,46.33
2019-03-23T22:57:57.446Z,45.73
2019-03-23T23:00:29.928Z,45.05
2019-03-23T23:03:01.227Z,46.85
2019-03-23T23:05:35.626Z,46.20
2019-03-23T23:08:13.217Z,45.90
2019-03-23T23:10:45.874Z,114.75
2019-03-23T23:13:17.866Z,132.70
2019-03-23T23:15:50.314Z,80.12
2019-03-23T23:18:22.408Z,56.65
2019-03-23T23:20:54.698Z,45.67
2019-03-23T23:23:27.326Z,46.05
2019-03-23T23:25:58.594Z,46.50
2019-03-23T23:28:31.087Z,45.73
2019-03-23T23:31:02.414Z,46.05
2019-03-23T23:33:36.845Z,47.50
2019-03-23T23:36:08.040Z,54.95
2019-03-23T23:38:40.730Z,49.77
2019-03-23T23:41:14.623Z,49.42
2019-03-23T23:43:47.256Z,47.38
2019-03-23T23:46:19.794Z,47.75
2019-03-23T23:48:52.125Z,49.18
2019-03-23T23:51:23.568Z,50.73
2019-03-23T23:53:55.660Z,48.13
2019-03-23T23:56:27.876Z,64.87
2019-03-23T23:59:01.851Z,133.75
